Magnus Heinason — OW2252 — position and weather

sailwx.info

Track history (hours):
 
Tides and Currents Weather Stations Pressure Air Temp Water Temp Dewpoint Dewpoint Depression Visibility Wind Speed Wind Dir Waves Ship Positions

Oceanographic research ship Magnus Heinason (Faroe Islands)

Detailed information on ship capabilities available from ARCUS's ALIAS (Arctic Logistics Information and Support) project.

Last reported at 2017-Aug-07 15:09 UTC. Time now 2017-Aug-17 09:44 UTC.
Position N 61°45' W 005°14'.
Warning: this ship's position is 9 days out of date.

Length 44 m; draft 4 m.

Type: . MMSI: 231041000.

Date/timePositionNaut miles runAvg speedWind from/ knotsBaromVisibWave heightAir tempDewpointWater temp
2017-Aug-07 15:09N 61°45' W 005°14'0 1.9
2017-Aug-07 15:00N 61°45' W 005°13'2 3.4
2017-Aug-07 14:30N 61°46' W 005°11'2 4.1
2017-Aug-07 13:58N 61°49' W 005°11'3 6.0
2017-Aug-07 13:30N 61°51' W 005°14'6 5.1
2017-Aug-07 12:21N 61°54' W 005°25'1 3.7
2017-Aug-07 11:59N 61°54' W 005°27'3 5.5
2017-Aug-07 11:29N 61°57' W 005°31'3 4.7
2017-Aug-07 10:51N 61°60' W 005°33'1 3.3
2017-Aug-07 10:29N 61°60' W 005°35'2 3.4
2017-Aug-07 10:00N 61°60' W 005°39'1 3.0
2017-Aug-07 09:30N 61°60' W 005°42'2 3.2
2017-Aug-07 09:01N 61°60' W 005°45'2 3.8
2017-Aug-07 08:31N 61°59' W 005°49'3 6.8
2017-Aug-07 08:01N 61°56' W 005°51'1 2.9
2017-Aug-07 07:31N 61°58' W 005°51'2 3.4
2017-Aug-07 07:01N 61°59' W 005°50'3 5.7
2017-Aug-07 06:30N 62°01' W 005°45'2 3.3
2017-Aug-07 06:00N 62°02' W 005°42'2 3.6
2017-Aug-07 05:30N 62°03' W 005°41'2 4.8
2017-Aug-07 05:01N 62°05' W 005°39'2 3.7
2017-Aug-07 04:31N 62°07' W 005°36'7 2.3
2017-Aug-07 01:20N 62°14' W 005°32'5 3.4
2017-Aug-06 23:58N 62°11' W 005°40'3 6.1
2017-Aug-06 23:25N 62°11' W 005°47'1 3.6
2017-Aug-06 23:01N 62°12' W 005°48'2 3.6
2017-Aug-06 22:30N 62°14' W 005°49'1 2.4
2017-Aug-06 22:01N 62°15' W 005°49'1 2.0
2017-Aug-06 21:31N 62°16' W 005°49'2 3.6
2017-Aug-06 21:00N 62°18' W 005°49'2 3.8
2017-Aug-06 20:29N 62°20' W 005°50'11 4.1
2017-Aug-06 17:53N 62°28' W 006°05'1 3.7
2017-Aug-06 17:31N 62°27' W 006°03'2 4.3
2017-Aug-06 17:00N 62°25' W 006°02'2 3.7
2017-Aug-06 16:30N 62°23' W 006°02'2 4.1
2017-Aug-06 16:01N 62°21' W 006°02'2 3.5
2017-Aug-06 15:29N 62°19' W 006°03'2 3.5
2017-Aug-06 14:59N 62°18' W 006°03'2 3.4
2017-Aug-06 14:30N 62°16' W 006°03'2 4.5
2017-Aug-06 14:01N 62°14' W 006°04'1 2.4
2017-Aug-06 13:30N 62°13' W 006°05'2 3.3
2017-Aug-06 13:01N 62°11' W 006°07'2 4.7
2017-Aug-06 12:31N 62°09' W 006°08'4 8.1
2017-Aug-06 12:00N 62°05' W 006°09'1 3.0
2017-Aug-06 11:30N 62°06' W 006°10'2 3.5
2017-Aug-06 11:00N 62°08' W 006°10'2 4.0
2017-Aug-06 10:30N 62°10' W 006°11'2 3.1
2017-Aug-06 10:01N 62°10' W 006°14'2 3.5
2017-Aug-06 09:31N 62°11' W 006°18'2 3.5
2017-Aug-06 09:00N 62°09' W 006°21'2 3.1
2017-Aug-06 08:30N 62°08' W 006°21'2 3.5
2017-Aug-06 08:00N 62°06' W 006°22'2 4.2
2017-Aug-06 07:30N 62°04' W 006°24'2 3.9
2017-Aug-06 07:00N 62°02' W 006°22'2 4.1
2017-Aug-06 06:30N 62°00' W 006°21'4 7.9
2017-Aug-06 06:00N 62°03' W 006°15'2 3.1
2017-Aug-06 05:31N 62°04' W 006°12'2 4.2
2017-Aug-06 05:00N 62°02' W 006°12'2 4.2
2017-Aug-06 04:31N 61°60' W 006°11'1 2.1
2017-Aug-06 04:01N 61°60' W 006°13'2 3.9
2017-Aug-06 03:30N 61°59' W 006°16'2 4.1
2017-Aug-06 03:01N 61°59' W 006°21'1 1.7
2017-Aug-06 02:30N 61°58' W 006°21'2 3.5
2017-Aug-06 02:01N 61°56' W 006°21'2 4.0
2017-Aug-06 01:30N 61°54' W 006°22'4 7.3
2017-Aug-06 01:00N 61°54' W 006°30'2 3.7
2017-Aug-06 00:31N 61°55' W 006°26'2 4.1
2017-Aug-06 00:00N 61°55' W 006°22'2 4.0
2017-Aug-05 23:30N 61°53' W 006°19'4 8.9
2017-Aug-05 23:01N 61°50' W 006°13'1 1.9
2017-Aug-05 22:30N 61°49' W 006°13'2 3.4
2017-Aug-05 22:00N 61°49' W 006°17'2 4.6
2017-Aug-05 21:30N 61°47' W 006°21'1 2.1
2017-Aug-05 21:00N 61°46' W 006°21'2 3.4
2017-Aug-05 20:30N 61°48' W 006°21'2 3.5
2017-Aug-05 20:00N 61°49' W 006°23'510.0
2017-Aug-05 19:30N 61°49' W 006°34'2 3.3
2017-Aug-05 19:01N 61°48' W 006°36'2 3.8
2017-Aug-05 18:31N 61°46' W 006°36'2 3.8
2017-Aug-05 18:00N 61°45' W 006°32'1 2.8
2017-Aug-05 17:31N 61°44' W 006°31'2 4.4
2017-Aug-05 17:00N 61°41' W 006°31'1 2.4
2017-Aug-05 16:30N 61°41' W 006°29'2 3.4
2017-Aug-05 16:01N 61°42' W 006°28'2 4.0
2017-Aug-05 15:30N 61°44' W 006°25'2 4.3
2017-Aug-05 15:00N 61°45' W 006°21'4 7.9
2017-Aug-05 14:31N 61°42' W 006°14'5 9.3
2017-Aug-05 14:01N 61°39' W 006°07'1 2.9
2017-Aug-05 13:30N 61°38' W 006°06'2 3.2
2017-Aug-05 12:51N 61°36' W 006°08'2 4.7
2017-Aug-05 12:19N 61°34' W 006°11'1 1.8
2017-Aug-05 12:00N 61°34' W 006°11'2 3.1
2017-Aug-05 11:27N 61°32' W 006°11'0 0.4
2017-Aug-05 10:47N 61°32' W 006°11'1 3.3
2017-Aug-05 10:29N 61°33' W 006°11'6 3.8
2017-Aug-05 08:50N 61°31' W 005°59'2 3.1
2017-Aug-05 08:06N 61°32' W 005°55'5 3.2
2017-Aug-05 06:38N 61°32' W 005°45'1 3.4
2017-Aug-05 06:22N 61°33' W 005°45'1 1.8
2017-Aug-05 06:00N 61°33' W 005°47'13 0.6
2017-Aug-04 06:44N 61°35' W 005°19'2 3.9
2017-Aug-04 06:20N 61°35' W 005°21'3 3.3
2017-Aug-04 05:18N 61°37' W 005°27'1 4.1
2017-Aug-04 05:00N 61°38' W 005°29'2 1.7
2017-Aug-04 03:48N 61°38' W 005°33'1 3.5
2017-Aug-04 03:30N 61°38' W 005°35'1 1.1
2017-Aug-04 02:33N 61°38' W 005°33'0 1.3
2017-Aug-04 02:28N 61°38' W 005°33'1 1.4
2017-Aug-04 01:29N 61°39' W 005°30'3 5.5
2017-Aug-04 00:57N 61°40' W 005°25'2 3.8
2017-Aug-04 00:30N 61°41' W 005°22'2 4.0
2017-Aug-04 00:00N 61°43' W 005°24'2 4.3
2017-Aug-03 23:30N 61°45' W 005°27'2 4.3
2017-Aug-03 23:00N 61°46' W 005°31'2 3.6
2017-Aug-03 22:31N 61°47' W 005°33'2 3.8
2017-Aug-03 22:00N 61°49' W 005°35'4 7.5
2017-Aug-03 21:31N 61°51' W 005°42'5 9.8
2017-Aug-03 21:00N 61°52' W 005°52'5 9.9
2017-Aug-03 20:31N 61°53' W 006°03'5 9.9
2017-Aug-03 20:00N 61°54' W 006°13'5 9.7
2017-Aug-03 19:30N 61°55' W 006°23'510.1
2017-Aug-03 19:00N 61°56' W 006°33'5 9.5
2017-Aug-03 18:31N 61°58' W 006°42'3 5.9
2017-Aug-03 18:01N 62°00' W 006°46'0 0.0
2017-Aug-03 17:30N 62°00' W 006°46'0 0.0
2017-Aug-03 17:00N 62°00' W 006°46'0 0.0
2017-Aug-03 16:30N 62°00' W 006°46'0 0.0
2017-Aug-03 16:00N 62°00' W 006°46'0 0.0
2017-Aug-03 15:30N 62°00' W 006°46'0 0.0
2017-Aug-03 15:00N 62°00' W 006°46'0 0.0
2017-Aug-03 14:00N 62°00' W 006°46'0 0.0
2017-Aug-03 13:31N 62°00' W 006°46'0 0.0
2017-Aug-03 13:00N 62°00' W 006°46'0 0.0
2017-Aug-03 12:30N 62°00' W 006°46'0 0.0
2017-Aug-03 12:00N 62°00' W 006°46'0 0.0
2017-Aug-03 11:30N 62°00' W 006°46'0 0.0
2017-Aug-03 11:01N 62°00' W 006°46'0 0.0
2017-Aug-03 10:30N 62°00' W 006°46'0 0.0
2017-Aug-03 10:01N 62°00' W 006°46'0 0.0
2017-Aug-03 09:30N 62°00' W 006°46'0 0.0
2017-Aug-03 09:00N 62°00' W 006°46'0 0.0
2017-Aug-03 08:30N 62°00' W 006°46'0 0.0
2017-Aug-03 08:01N 62°00' W 006°46'0 0.0
2017-Aug-03 07:31N 62°00' W 006°46'0 0.0
2017-Aug-03 07:01N 62°00' W 006°46'0 0.0
2017-Aug-03 06:30N 62°00' W 006°46'0 0.0
2017-Aug-03 06:01N 62°00' W 006°46'0 0.0
2017-Aug-03 05:31N 62°00' W 006°46'0 0.0
2017-Aug-03 05:00N 62°00' W 006°46'0 0.0
2017-Aug-03 04:30N 62°00' W 006°46'0 0.0
2017-Aug-03 04:01N 62°00' W 006°46'0 0.0
2017-Aug-03 03:31N 62°00' W 006°46'0 0.0
2017-Aug-03 03:00N 62°00' W 006°46'0 0.0
2017-Aug-03 02:30N 62°00' W 006°46'0 0.0
2017-Aug-03 02:00N 62°00' W 006°46'0 0.0
2017-Aug-03 01:30N 62°00' W 006°46'0 0.0
2017-Aug-03 01:00N 62°00' W 006°46'0 0.0
2017-Aug-03 00:30N 62°00' W 006°46'0 0.0
2017-Aug-03 00:01N 62°00' W 006°46'0 0.0
2017-Aug-02 23:30N 62°00' W 006°46'0 0.0
2017-Aug-02 23:00N 62°00' W 006°46'0 0.0
2017-Aug-02 22:31N 62°00' W 006°46'0 0.0
2017-Aug-02 22:00N 62°00' W 006°46'0 0.0
2017-Aug-02 21:31N 62°00' W 006°46'0 0.0
2017-Aug-02 21:00N 62°00' W 006°46'0 0.0
2017-Aug-02 20:31N 62°00' W 006°46'0 0.0
2017-Aug-02 20:01N 62°00' W 006°46'0 0.0
2017-Aug-02 19:30N 62°00' W 006°46'0 0.0
2017-Aug-02 19:00N 62°00' W 006°46'0 0.0
2017-Aug-02 18:30N 62°00' W 006°46'0 0.0
2017-Aug-02 18:00N 62°00' W 006°46'0 0.0
2017-Aug-02 17:30N 62°00' W 006°46'0 0.0
2017-Aug-02 17:00N 62°00' W 006°46'0 0.0
2017-Aug-02 16:31N 62°00' W 006°46'0 0.0
2017-Aug-02 16:01N 62°00' W 006°46'0 0.0
2017-Aug-02 15:31N 62°00' W 006°46'0 0.0
2017-Aug-02 15:01N 62°00' W 006°46'0 0.0
2017-Aug-02 13:30N 62°00' W 006°46'0 0.3
2017-Aug-02 13:00N 62°00' W 006°46'0 0.0
2017-Aug-02 12:31N 62°00' W 006°46'0 0.0
2017-Aug-02 12:00N 62°00' W 006°46'0 0.0
2017-Aug-02 11:30N 62°00' W 006°46'0 0.0
2017-Aug-02 11:00N 62°00' W 006°46'0 0.0
2017-Aug-02 10:31N 62°00' W 006°46'0 0.0
2017-Aug-02 10:01N 62°00' W 006°46'0 0.0
2017-Aug-02 09:30N 62°00' W 006°46'0 0.0
2017-Aug-02 09:01N 62°00' W 006°46'0 0.0
2017-Aug-02 08:31N 62°00' W 006°46'0 0.0
2017-Aug-02 08:00N 62°00' W 006°46'0 0.0
2017-Aug-02 07:30N 62°00' W 006°46'0 0.0
2017-Aug-02 07:01N 62°00' W 006°46'0 0.0
2017-Aug-02 06:30N 62°00' W 006°46'0 0.0
2017-Aug-02 06:01N 62°00' W 006°46'0 0.0
2017-Aug-02 05:30N 62°00' W 006°46'0 0.0
2017-Aug-02 05:00N 62°00' W 006°46'0 0.0
2017-Aug-02 04:31N 62°00' W 006°46'0 0.0
2017-Aug-02 04:00N 62°00' W 006°46'0 0.0
2017-Aug-02 03:30N 62°00' W 006°46'0 0.0
2017-Aug-02 03:00N 62°00' W 006°46'0 0.0
2017-Aug-02 02:31N 62°00' W 006°46'0 0.0
2017-Aug-02 02:00N 62°00' W 006°46'  
2017-Jul-29 19:00N 62°00' W 006°46'0 0.0
2017-Jul-29 18:30N 62°00' W 006°46'0 0.0
2017-Jul-29 18:00N 62°00' W 006°46'0 0.0
2017-Jul-29 17:31N 62°00' W 006°46'0 0.0
2017-Jul-29 17:01N 62°00' W 006°46'0 0.0
2017-Jul-29 16:30N 62°00' W 006°46'0 0.0
2017-Jul-29 16:00N 62°00' W 006°46'0 0.0
2017-Jul-29 15:30N 62°00' W 006°46'0 0.0
2017-Jul-29 15:01N 62°00' W 006°46'0 0.0
2017-Jul-29 14:00N 62°00' W 006°46'0 0.0
2017-Jul-29 13:31N 62°00' W 006°46'0 0.0
2017-Jul-29 13:00N 62°00' W 006°46'0 0.0
2017-Jul-29 12:31N 62°00' W 006°46'0 0.0
2017-Jul-29 12:01N 62°00' W 006°46'0 0.0
2017-Jul-29 11:30N 62°00' W 006°46'0 0.0
2017-Jul-29 11:00N 62°00' W 006°46'0 0.0
2017-Jul-29 10:31N 62°00' W 006°46'0 0.0
2017-Jul-29 10:01N 62°00' W 006°46'0 0.0
2017-Jul-29 09:31N 62°00' W 006°46'0 0.0
2017-Jul-29 09:01N 62°00' W 006°46'0 0.0
2017-Jul-29 08:31N 62°00' W 006°46'0 0.0
2017-Jul-29 08:01N 62°00' W 006°46'0 0.0
2017-Jul-29 07:30N 62°00' W 006°46'0 0.0
2017-Jul-29 07:01N 62°00' W 006°46'0 0.0
2017-Jul-29 06:31N 62°00' W 006°46'0 0.0
2017-Jul-29 06:01N 62°00' W 006°46'0 0.0
2017-Jul-29 05:31N 62°00' W 006°46'0 0.0
2017-Jul-29 05:01N 62°00' W 006°46'0 0.0
2017-Jul-29 04:31N 62°00' W 006°46'0 0.0
2017-Jul-29 04:01N 62°00' W 006°46'0 0.0
2017-Jul-29 03:31N 62°00' W 006°46'0 0.0
2017-Jul-29 03:00N 62°00' W 006°46'0 0.0
2017-Jul-29 02:30N 62°00' W 006°46'0 0.0
2017-Jul-29 02:01N 62°00' W 006°46'0 0.0
2017-Jul-29 01:30N 62°00' W 006°46'0 0.0
2017-Jul-29 01:00N 62°00' W 006°46'0 0.0
2017-Jul-29 00:30N 62°00' W 006°46'0 0.0
2017-Jul-29 00:01N 62°00' W 006°46'0 0.0
2017-Jul-28 23:30N 62°00' W 006°46'0 0.0
2017-Jul-28 23:00N 62°00' W 006°46'0 0.0
2017-Jul-28 22:30N 62°00' W 006°46'0 0.0
2017-Jul-28 22:01N 62°00' W 006°46'0 0.0
2017-Jul-28 21:31N 62°00' W 006°46'0 0.0
2017-Jul-28 21:01N 62°00' W 006°46'0 0.0
2017-Jul-28 20:31N 62°00' W 006°46'0 0.0
2017-Jul-28 20:01N 62°00' W 006°46'0 0.0
2017-Jul-28 19:30N 62°00' W 006°46'0 0.0
2017-Jul-28 19:00N 62°00' W 006°46'0 0.0
2017-Jul-28 18:30N 62°00' W 006°46'0 0.0
2017-Jul-28 18:00N 62°00' W 006°46'0 0.0
2017-Jul-28 17:31N 62°00' W 006°46'0 0.0
2017-Jul-28 17:00N 62°00' W 006°46'0 0.0
2017-Jul-28 16:31N 62°00' W 006°46'0 0.0
2017-Jul-28 16:00N 62°00' W 006°46'0 0.0
2017-Jul-28 15:30N 62°00' W 006°46'  
Track history (hours):
 
Tides and Currents Weather Stations Pressure Air Temp Water Temp Dewpoint Dewpoint Depression Visibility Wind Speed Wind Dir Waves Ship Positions

Oceanographic research ship Magnus Heinason (Faroe Islands)

Detailed information on ship capabilities available from ARCUS's ALIAS (Arctic Logistics Information and Support) project.

Last reported at 2017-Aug-07 15:09 UTC. Time now 2017-Aug-17 09:44 UTC.
Position N 61°45' W 005°14'.
Warning: this ship's position is 9 days out of date.

Length 44 m; draft 4 m.

Type: . MMSI: 231041000.

Date/timePositionNaut miles runAvg speedWind from/ knotsBaromVisibWave heightAir tempDewpointWater temp
2017-Aug-07 15:09N 61°45' W 005°14'0 1.9
2017-Aug-07 15:00N 61°45' W 005°13'2 3.4
2017-Aug-07 14:30N 61°46' W 005°11'2 4.1
2017-Aug-07 13:58N 61°49' W 005°11'3 6.0
2017-Aug-07 13:30N 61°51' W 005°14'6 5.1
2017-Aug-07 12:21N 61°54' W 005°25'1 3.7
2017-Aug-07 11:59N 61°54' W 005°27'3 5.5
2017-Aug-07 11:29N 61°57' W 005°31'3 4.7
2017-Aug-07 10:51N 61°60' W 005°33'1 3.3
2017-Aug-07 10:29N 61°60' W 005°35'2 3.4
2017-Aug-07 10:00N 61°60' W 005°39'1 3.0
2017-Aug-07 09:30N 61°60' W 005°42'2 3.2
2017-Aug-07 09:01N 61°60' W 005°45'2 3.8
2017-Aug-07 08:31N 61°59' W 005°49'3 6.8
2017-Aug-07 08:01N 61°56' W 005°51'1 2.9
2017-Aug-07 07:31N 61°58' W 005°51'2 3.4
2017-Aug-07 07:01N 61°59' W 005°50'3 5.7
2017-Aug-07 06:30N 62°01' W 005°45'2 3.3
2017-Aug-07 06:00N 62°02' W 005°42'2 3.6
2017-Aug-07 05:30N 62°03' W 005°41'2 4.8
2017-Aug-07 05:01N 62°05' W 005°39'2 3.7
2017-Aug-07 04:31N 62°07' W 005°36'7 2.3
2017-Aug-07 01:20N 62°14' W 005°32'5 3.4
2017-Aug-06 23:58N 62°11' W 005°40'3 6.1
2017-Aug-06 23:25N 62°11' W 005°47'1 3.6
2017-Aug-06 23:01N 62°12' W 005°48'2 3.6
2017-Aug-06 22:30N 62°14' W 005°49'1 2.4
2017-Aug-06 22:01N 62°15' W 005°49'1 2.0
2017-Aug-06 21:31N 62°16' W 005°49'2 3.6
2017-Aug-06 21:00N 62°18' W 005°49'2 3.8
2017-Aug-06 20:29N 62°20' W 005°50'11 4.1
2017-Aug-06 17:53N 62°28' W 006°05'1 3.7
2017-Aug-06 17:31N 62°27' W 006°03'2 4.3
2017-Aug-06 17:00N 62°25' W 006°02'2 3.7
2017-Aug-06 16:30N 62°23' W 006°02'2 4.1
2017-Aug-06 16:01N 62°21' W 006°02'2 3.5
2017-Aug-06 15:29N 62°19' W 006°03'2 3.5
2017-Aug-06 14:59N 62°18' W 006°03'2 3.4
2017-Aug-06 14:30N 62°16' W 006°03'2 4.5
2017-Aug-06 14:01N 62°14' W 006°04'1 2.4
2017-Aug-06 13:30N 62°13' W 006°05'2 3.3
2017-Aug-06 13:01N 62°11' W 006°07'2 4.7
2017-Aug-06 12:31N 62°09' W 006°08'4 8.1
2017-Aug-06 12:00N 62°05' W 006°09'1 3.0
2017-Aug-06 11:30N 62°06' W 006°10'2 3.5
2017-Aug-06 11:00N 62°08' W 006°10'2 4.0
2017-Aug-06 10:30N 62°10' W 006°11'2 3.1
2017-Aug-06 10:01N 62°10' W 006°14'2 3.5
2017-Aug-06 09:31N 62°11' W 006°18'2 3.5
2017-Aug-06 09:00N 62°09' W 006°21'2 3.1
2017-Aug-06 08:30N 62°08' W 006°21'2 3.5
2017-Aug-06 08:00N 62°06' W 006°22'2 4.2
2017-Aug-06 07:30N 62°04' W 006°24'2 3.9
2017-Aug-06 07:00N 62°02' W 006°22'2 4.1
2017-Aug-06 06:30N 62°00' W 006°21'4 7.9
2017-Aug-06 06:00N 62°03' W 006°15'2 3.1
2017-Aug-06 05:31N 62°04' W 006°12'2 4.2
2017-Aug-06 05:00N 62°02' W 006°12'2 4.2
2017-Aug-06 04:31N 61°60' W 006°11'1 2.1
2017-Aug-06 04:01N 61°60' W 006°13'2 3.9
2017-Aug-06 03:30N 61°59' W 006°16'2 4.1
2017-Aug-06 03:01N 61°59' W 006°21'1 1.7
2017-Aug-06 02:30N 61°58' W 006°21'2 3.5
2017-Aug-06 02:01N 61°56' W 006°21'2 4.0
2017-Aug-06 01:30N 61°54' W 006°22'4 7.3
2017-Aug-06 01:00N 61°54' W 006°30'2 3.7
2017-Aug-06 00:31N 61°55' W 006°26'2 4.1
2017-Aug-06 00:00N 61°55' W 006°22'2 4.0
2017-Aug-05 23:30N 61°53' W 006°19'4 8.9
2017-Aug-05 23:01N 61°50' W 006°13'1 1.9
2017-Aug-05 22:30N 61°49' W 006°13'2 3.4
2017-Aug-05 22:00N 61°49' W 006°17'2 4.6
2017-Aug-05 21:30N 61°47' W 006°21'1 2.1
2017-Aug-05 21:00N 61°46' W 006°21'2 3.4
2017-Aug-05 20:30N 61°48' W 006°21'2 3.5
2017-Aug-05 20:00N 61°49' W 006°23'510.0
2017-Aug-05 19:30N 61°49' W 006°34'2 3.3
2017-Aug-05 19:01N 61°48' W 006°36'2 3.8
2017-Aug-05 18:31N 61°46' W 006°36'2 3.8
2017-Aug-05 18:00N 61°45' W 006°32'1 2.8
2017-Aug-05 17:31N 61°44' W 006°31'2 4.4
2017-Aug-05 17:00N 61°41' W 006°31'1 2.4
2017-Aug-05 16:30N 61°41' W 006°29'2 3.4
2017-Aug-05 16:01N 61°42' W 006°28'2 4.0
2017-Aug-05 15:30N 61°44' W 006°25'2 4.3
2017-Aug-05 15:00N 61°45' W 006°21'4 7.9
2017-Aug-05 14:31N 61°42' W 006°14'5 9.3
2017-Aug-05 14:01N 61°39' W 006°07'1 2.9
2017-Aug-05 13:30N 61°38' W 006°06'2 3.2
2017-Aug-05 12:51N 61°36' W 006°08'2 4.7
2017-Aug-05 12:19N 61°34' W 006°11'1 1.8
2017-Aug-05 12:00N 61°34' W 006°11'2 3.1
2017-Aug-05 11:27N 61°32' W 006°11'0 0.4
2017-Aug-05 10:47N 61°32' W 006°11'1 3.3
2017-Aug-05 10:29N 61°33' W 006°11'6 3.8
2017-Aug-05 08:50N 61°31' W 005°59'2 3.1
2017-Aug-05 08:06N 61°32' W 005°55'5 3.2
2017-Aug-05 06:38N 61°32' W 005°45'1 3.4
2017-Aug-05 06:22N 61°33' W 005°45'1 1.8
2017-Aug-05 06:00N 61°33' W 005°47'13 0.6
2017-Aug-04 06:44N 61°35' W 005°19'2 3.9
2017-Aug-04 06:20N 61°35' W 005°21'3 3.3
2017-Aug-04 05:18N 61°37' W 005°27'1 4.1
2017-Aug-04 05:00N 61°38' W 005°29'2 1.7
2017-Aug-04 03:48N 61°38' W 005°33'1 3.5
2017-Aug-04 03:30N 61°38' W 005°35'1 1.1
2017-Aug-04 02:33N 61°38' W 005°33'0 1.3
2017-Aug-04 02:28N 61°38' W 005°33'1 1.4
2017-Aug-04 01:29N 61°39' W 005°30'3 5.5
2017-Aug-04 00:57N 61°40' W 005°25'2 3.8
2017-Aug-04 00:30N 61°41' W 005°22'2 4.0
2017-Aug-04 00:00N 61°43' W 005°24'2 4.3
2017-Aug-03 23:30N 61°45' W 005°27'2 4.3
2017-Aug-03 23:00N 61°46' W 005°31'2 3.6
2017-Aug-03 22:31N 61°47' W 005°33'2 3.8
2017-Aug-03 22:00N 61°49' W 005°35'4 7.5
2017-Aug-03 21:31N 61°51' W 005°42'5 9.8
2017-Aug-03 21:00N 61°52' W 005°52'5 9.9
2017-Aug-03 20:31N 61°53' W 006°03'5 9.9
2017-Aug-03 20:00N 61°54' W 006°13'5 9.7
2017-Aug-03 19:30N 61°55' W 006°23'510.1
2017-Aug-03 19:00N 61°56' W 006°33'5 9.5
2017-Aug-03 18:31N 61°58' W 006°42'3 5.9
2017-Aug-03 18:01N 62°00' W 006°46'0 0.0
2017-Aug-03 17:30N 62°00' W 006°46'0 0.0
2017-Aug-03 17:00N 62°00' W 006°46'0 0.0
2017-Aug-03 16:30N 62°00' W 006°46'0 0.0
2017-Aug-03 16:00N 62°00' W 006°46'0 0.0
2017-Aug-03 15:30N 62°00' W 006°46'0 0.0
2017-Aug-03 15:00N 62°00' W 006°46'0 0.0
2017-Aug-03 14:00N 62°00' W 006°46'0 0.0
2017-Aug-03 13:31N 62°00' W 006°46'0 0.0
2017-Aug-03 13:00N 62°00' W 006°46'0 0.0
2017-Aug-03 12:30N 62°00' W 006°46'0 0.0
2017-Aug-03 12:00N 62°00' W 006°46'0 0.0
2017-Aug-03 11:30N 62°00' W 006°46'0 0.0
2017-Aug-03 11:01N 62°00' W 006°46'0 0.0
2017-Aug-03 10:30N 62°00' W 006°46'0 0.0
2017-Aug-03 10:01N 62°00' W 006°46'0 0.0
2017-Aug-03 09:30N 62°00' W 006°46'0 0.0
2017-Aug-03 09:00N 62°00' W 006°46'0 0.0
2017-Aug-03 08:30N 62°00' W 006°46'0 0.0
2017-Aug-03 08:01N 62°00' W 006°46'0 0.0
2017-Aug-03 07:31N 62°00' W 006°46'0 0.0
2017-Aug-03 07:01N 62°00' W 006°46'0 0.0
2017-Aug-03 06:30N 62°00' W 006°46'0 0.0
2017-Aug-03 06:01N 62°00' W 006°46'0 0.0
2017-Aug-03 05:31N 62°00' W 006°46'0 0.0
2017-Aug-03 05:00N 62°00' W 006°46'0 0.0
2017-Aug-03 04:30N 62°00' W 006°46'0 0.0
2017-Aug-03 04:01N 62°00' W 006°46'0 0.0
2017-Aug-03 03:31N 62°00' W 006°46'0 0.0
2017-Aug-03 03:00N 62°00' W 006°46'0 0.0
2017-Aug-03 02:30N 62°00' W 006°46'0 0.0
2017-Aug-03 02:00N 62°00' W 006°46'0 0.0
2017-Aug-03 01:30N 62°00' W 006°46'0 0.0
2017-Aug-03 01:00N 62°00' W 006°46'0 0.0
2017-Aug-03 00:30N 62°00' W 006°46'0 0.0
2017-Aug-03 00:01N 62°00' W 006°46'0 0.0
2017-Aug-02 23:30N 62°00' W 006°46'0 0.0
2017-Aug-02 23:00N 62°00' W 006°46'0 0.0
2017-Aug-02 22:31N 62°00' W 006°46'0 0.0
2017-Aug-02 22:00N 62°00' W 006°46'0 0.0
2017-Aug-02 21:31N 62°00' W 006°46'0 0.0
2017-Aug-02 21:00N 62°00' W 006°46'0 0.0
2017-Aug-02 20:31N 62°00' W 006°46'0 0.0
2017-Aug-02 20:01N 62°00' W 006°46'0 0.0
2017-Aug-02 19:30N 62°00' W 006°46'0 0.0
2017-Aug-02 19:00N 62°00' W 006°46'0 0.0
2017-Aug-02 18:30N 62°00' W 006°46'0 0.0
2017-Aug-02 18:00N 62°00' W 006°46'0 0.0
2017-Aug-02 17:30N 62°00' W 006°46'0 0.0
2017-Aug-02 17:00N 62°00' W 006°46'0 0.0
2017-Aug-02 16:31N 62°00' W 006°46'0 0.0
2017-Aug-02 16:01N 62°00' W 006°46'0 0.0
2017-Aug-02 15:31N 62°00' W 006°46'0 0.0
2017-Aug-02 15:01N 62°00' W 006°46'0 0.0
2017-Aug-02 13:30N 62°00' W 006°46'0 0.3
2017-Aug-02 13:00N 62°00' W 006°46'0 0.0
2017-Aug-02 12:31N 62°00' W 006°46'0 0.0
2017-Aug-02 12:00N 62°00' W 006°46'0 0.0
2017-Aug-02 11:30N 62°00' W 006°46'0 0.0
2017-Aug-02 11:00N 62°00' W 006°46'0 0.0
2017-Aug-02 10:31N 62°00' W 006°46'0 0.0
2017-Aug-02 10:01N 62°00' W 006°46'0 0.0
2017-Aug-02 09:30N 62°00' W 006°46'0 0.0
2017-Aug-02 09:01N 62°00' W 006°46'0 0.0
2017-Aug-02 08:31N 62°00' W 006°46'0 0.0
2017-Aug-02 08:00N 62°00' W 006°46'0 0.0
2017-Aug-02 07:30N 62°00' W 006°46'0 0.0
2017-Aug-02 07:01N 62°00' W 006°46'0 0.0
2017-Aug-02 06:30N 62°00' W 006°46'0 0.0
2017-Aug-02 06:01N 62°00' W 006°46'0 0.0
2017-Aug-02 05:30N 62°00' W 006°46'0 0.0
2017-Aug-02 05:00N 62°00' W 006°46'0 0.0
2017-Aug-02 04:31N 62°00' W 006°46'0 0.0
2017-Aug-02 04:00N 62°00' W 006°46'0 0.0
2017-Aug-02 03:30N 62°00' W 006°46'0 0.0
2017-Aug-02 03:00N 62°00' W 006°46'0 0.0
2017-Aug-02 02:31N 62°00' W 006°46'0 0.0
2017-Aug-02 02:00N 62°00' W 006°46'  
2017-Jul-29 19:00N 62°00' W 006°46'0 0.0
2017-Jul-29 18:30N 62°00' W 006°46'0 0.0
2017-Jul-29 18:00N 62°00' W 006°46'0 0.0
2017-Jul-29 17:31N 62°00' W 006°46'0 0.0
2017-Jul-29 17:01N 62°00' W 006°46'0 0.0
2017-Jul-29 16:30N 62°00' W 006°46'0 0.0
2017-Jul-29 16:00N 62°00' W 006°46'0 0.0
2017-Jul-29 15:30N 62°00' W 006°46'0 0.0
2017-Jul-29 15:01N 62°00' W 006°46'0 0.0
2017-Jul-29 14:00N 62°00' W 006°46'0 0.0
2017-Jul-29 13:31N 62°00' W 006°46'0 0.0
2017-Jul-29 13:00N 62°00' W 006°46'0 0.0
2017-Jul-29 12:31N 62°00' W 006°46'0 0.0
2017-Jul-29 12:01N 62°00' W 006°46'0 0.0
2017-Jul-29 11:30N 62°00' W 006°46'0 0.0
2017-Jul-29 11:00N 62°00' W 006°46'0 0.0
2017-Jul-29 10:31N 62°00' W 006°46'0 0.0
2017-Jul-29 10:01N 62°00' W 006°46'0 0.0
2017-Jul-29 09:31N 62°00' W 006°46'0 0.0
2017-Jul-29 09:01N 62°00' W 006°46'0 0.0
2017-Jul-29 08:31N 62°00' W 006°46'0 0.0
2017-Jul-29 08:01N 62°00' W 006°46'0 0.0
2017-Jul-29 07:30N 62°00' W 006°46'0 0.0
2017-Jul-29 07:01N 62°00' W 006°46'0 0.0
2017-Jul-29 06:31N 62°00' W 006°46'0 0.0
2017-Jul-29 06:01N 62°00' W 006°46'0 0.0
2017-Jul-29 05:31N 62°00' W 006°46'0 0.0
2017-Jul-29 05:01N 62°00' W 006°46'0 0.0
2017-Jul-29 04:31N 62°00' W 006°46'0 0.0
2017-Jul-29 04:01N 62°00' W 006°46'0 0.0
2017-Jul-29 03:31N 62°00' W 006°46'0 0.0
2017-Jul-29 03:00N 62°00' W 006°46'0 0.0
2017-Jul-29 02:30N 62°00' W 006°46'0 0.0
2017-Jul-29 02:01N 62°00' W 006°46'0 0.0
2017-Jul-29 01:30N 62°00' W 006°46'0 0.0
2017-Jul-29 01:00N 62°00' W 006°46'0 0.0
2017-Jul-29 00:30N 62°00' W 006°46'0 0.0
2017-Jul-29 00:01N 62°00' W 006°46'0 0.0
2017-Jul-28 23:30N 62°00' W 006°46'0 0.0
2017-Jul-28 23:00N 62°00' W 006°46'0 0.0
2017-Jul-28 22:30N 62°00' W 006°46'0 0.0
2017-Jul-28 22:01N 62°00' W 006°46'0 0.0
2017-Jul-28 21:31N 62°00' W 006°46'0 0.0
2017-Jul-28 21:01N 62°00' W 006°46'0 0.0
2017-Jul-28 20:31N 62°00' W 006°46'0 0.0
2017-Jul-28 20:01N 62°00' W 006°46'0 0.0
2017-Jul-28 19:30N 62°00' W 006°46'0 0.0
2017-Jul-28 19:00N 62°00' W 006°46'0 0.0
2017-Jul-28 18:30N 62°00' W 006°46'0 0.0
2017-Jul-28 18:00N 62°00' W 006°46'0 0.0
2017-Jul-28 17:31N 62°00' W 006°46'0 0.0
2017-Jul-28 17:00N 62°00' W 006°46'0 0.0
2017-Jul-28 16:31N 62°00' W 006°46'0 0.0
2017-Jul-28 16:00N 62°00' W 006°46'0 0.0
2017-Jul-28 15:30N 62°00' W 006°46'  

Dump ship's entire track history